Time;durP1;ratioP1;P1;durP2;ratioP2;P2;SDS_P1;SDS_P2;PMS_P1;PMS_P2;Temp;Humidity;BMP_temperature;BMP_pressure;BME280_temperature;BME280_humidity;BME280_pressure;Samples;Min_cycle;Max_cycle;Signal;HPM_P1;HPM_P2
2023/03/13 00:01:20;;;;;;;10.23;5.60;;;;;;;12.80;33.61;100434.22;5073040;28;20093;-64
2023/03/13 00:03:48;;;;;;;10.35;5.80;;;;;;;12.75;33.21;100431.00;5073084;28;20493;-64
2023/03/13 00:06:17;;;;;;;9.13;5.63;;;;;;;12.78;33.30;100436.16;5072894;28;20052;-66
2023/03/13 00:08:45;;;;;;;8.75;5.28;;;;;;;12.77;33.35;100440.66;5072852;28;20055;-65
2023/03/13 00:11:15;;;;;;;8.27;5.40;;;;;;;12.74;33.62;100437.28;5073101;28;20313;-66
2023/03/13 00:13:43;;;;;;;9.18;5.63;;;;;;;12.74;33.49;100445.31;5072727;28;20048;-66
2023/03/13 00:16:13;;;;;;;8.82;5.47;;;;;;;12.74;33.69;100448.00;5072764;28;20068;-65
2023/03/13 00:18:49;;;;;;;9.27;5.30;;;;;;;12.70;33.73;100433.13;5072659;28;20091;-65
2023/03/13 00:21:19;;;;;;;8.63;5.47;;;;;;;12.71;33.48;100437.50;5072571;28;20055;-64
2023/03/13 00:23:47;;;;;;;9.18;5.32;;;;;;;12.69;33.64;100426.06;5072674;28;20106;-65
2023/03/13 00:26:17;;;;;;;8.80;5.22;;;;;;;12.68;33.42;100430.53;5072599;28;20080;-65
2023/03/13 00:28:46;;;;;;;8.25;5.15;;;;;;;12.65;33.63;100427.22;5072416;28;20067;-67
2023/03/13 00:31:16;;;;;;;8.70;5.00;;;;;;;12.65;33.46;100420.06;5072601;28;20052;-66
2023/03/13 00:33:47;;;;;;;8.02;5.18;;;;;;;12.65;33.55;100419.19;5072390;28;20462;-66
2023/03/13 00:36:19;;;;;;;9.35;5.05;;;;;;;12.63;33.66;100421.09;5072406;28;20044;-65
2023/03/13 00:38:47;;;;;;;11.15;5.60;;;;;;;12.60;33.94;100417.66;5072151;28;20115;-66
2023/03/13 00:41:17;;;;;;;7.72;5.05;;;;;;;12.59;33.82;100420.44;5072430;28;20044;-67
2023/03/13 00:43:47;;;;;;;8.02;4.93;;;;;;;12.59;33.69;100415.94;5071874;28;20106;-65
2023/03/13 00:46:18;;;;;;;7.07;4.57;;;;;;;12.55;33.92;100409.09;5072191;28;20485;-65
2023/03/13 00:48:48;;;;;;;9.57;5.65;;;;;;;12.57;33.92;100414.34;5071996;28;20048;-65
2023/03/13 00:51:18;;;;;;;7.85;4.85;;;;;;;12.55;33.82;100419.81;5072126;28;20436;-66
2023/03/13 00:53:46;;;;;;;9.65;4.75;;;;;;;12.55;33.86;100422.47;5072095;28;20041;-65
2023/03/13 00:56:16;;;;;;;7.35;4.57;;;;;;;12.54;33.78;100412.69;5071980;28;20106;-65
2023/03/13 00:58:45;;;;;;;8.40;4.65;;;;;;;12.48;33.90;100402.44;5072083;28;20047;-64
2023/03/13 01:01:16;;;;;;;8.57;5.32;;;;;;;12.47;33.83;100400.72;5071932;28;20048;-65
2023/03/13 01:03:48;;;;;;;8.48;4.85;;;;;;;12.50;33.83;100399.66;5072059;28;20048;-64
2023/03/13 01:06:19;;;;;;;7.75;4.70;;;;;;;12.49;33.86;100392.56;5072012;28;20056;-65
2023/03/13 01:08:48;;;;;;;9.07;4.68;;;;;;;12.46;33.82;100377.59;5072258;28;20384;-65
2023/03/13 01:11:18;;;;;;;8.65;4.50;;;;;;;12.46;33.88;100364.22;5072237;28;20045;-65
2023/03/13 01:13:47;;;;;;;9.55;4.47;;;;;;;12.45;33.84;100375.88;5072340;28;20549;-66
2023/03/13 01:16:16;;;;;;;7.10;4.45;;;;;;;12.41;33.87;100374.34;5072075;28;20086;-65
2023/03/13 01:18:49;;;;;;;8.00;4.65;;;;;;;12.41;34.12;100381.53;5072067;28;20087;-65
2023/03/13 01:21:19;;;;;;;7.93;4.60;;;;;;;12.42;34.07;100384.09;5071876;28;20072;-66
2023/03/13 01:23:47;;;;;;;7.63;4.50;;;;;;;12.42;34.24;100386.75;5071862;28;20044;-65
2023/03/13 01:26:16;;;;;;;7.32;4.72;;;;;;;12.40;34.33;100383.34;5071761;28;20490;-64
2023/03/13 01:28:45;;;;;;;7.65;4.38;;;;;;;12.38;34.23;100371.88;5071563;28;20032;-66
2023/03/13 01:31:14;;;;;;;8.30;4.53;;;;;;;12.37;34.28;100366.66;5071747;28;20102;-66
2023/03/13 01:33:42;;;;;;;7.00;4.45;;;;;;;12.38;34.32;100369.22;5071559;28;20068;-66
2023/03/13 01:36:12;;;;;;;7.13;4.10;;;;;;;12.37;34.37;100367.50;5071693;28;20044;-64
2023/03/13 01:38:40;;;;;;;6.50;4.05;;;;;;;12.35;33.91;100357.84;5071441;28;20414;-64
2023/03/13 01:41:12;;;;;;;6.95;4.32;;;;;;;12.35;34.39;100358.69;5071593;28;20060;-65
2023/03/13 01:43:40;;;;;;;7.18;3.95;;;;;;;12.33;34.37;100360.63;5071660;28;20040;-65
2023/03/13 01:46:15;;;;;;;7.72;4.55;;;;;;;12.35;34.34;100368.53;5071548;28;20055;-65
2023/03/13 01:48:51;;;;;;;7.03;4.00;;;;;;;12.33;34.64;100360.63;5071389;28;20040;-65
2023/03/13 01:51:26;;;;;;;6.97;3.75;;;;;;;12.31;34.68;100350.03;5071434;28;20217;-66
2023/03/13 01:54:00;;;;;;;6.25;4.28;;;;;;;12.32;34.40;100356.22;5071452;28;20048;-65
2023/03/13 01:56:35;;;;;;;7.00;3.70;;;;;;;12.33;34.56;100357.94;5072716;28;20048;-65
2023/03/13 01:59:06;;;;;;;6.95;4.20;;;;;;;12.30;34.64;100356.34;5075453;28;20059;-64
2023/03/13 02:01:35;;;;;;;7.10;4.03;;;;;;;12.32;34.66;100356.22;5075258;28;20207;-64
2023/03/13 02:04:04;;;;;;;6.25;4.22;;;;;;;12.29;34.77;100343.94;5075237;28;20040;-66
2023/03/13 02:06:38;;;;;;;7.47;3.72;;;;;;;12.30;34.67;100344.78;5075564;28;20044;-66
2023/03/13 02:09:12;;;;;;;6.35;3.88;;;;;;;12.28;34.63;100347.56;5075254;28;20045;-65
2023/03/13 02:11:47;;;;;;;7.05;3.80;;;;;;;12.28;34.61;100344.88;5075762;28;20044;-65
2023/03/13 02:14:17;;;;;;;6.25;3.72;;;;;;;12.28;34.74;100352.06;5075141;28;20550;-64
2023/03/13 02:16:50;;;;;;;6.35;3.70;;;;;;;12.29;34.81;100364.47;5075140;28;20091;-66
2023/03/13 02:19:31;;;;;;;5.60;3.80;;;;;;;12.24;34.96;100345.16;5074947;28;20055;-64
2023/03/13 02:22:07;;;;;;;5.72;3.60;;;;;;;12.26;34.95;100354.84;5074968;28;20049;-64
2023/03/13 02:24:43;;;;;;;7.07;3.47;;;;;;;12.24;34.74;100351.38;5074807;28;20551;-65
2023/03/13 02:27:13;;;;;;;6.00;3.67;;;;;;;12.26;35.14;100356.66;5074877;28;20506;-65
2023/03/13 02:29:42;;;;;;;5.95;3.40;;;;;;;12.25;35.08;100353.09;5074785;28;20102;-65
2023/03/13 02:32:11;;;;;;;6.30;3.58;;;;;;;12.27;35.07;100363.72;5074886;28;20551;-65
2023/03/13 02:34:43;;;;;;;6.63;3.67;;;;;;;12.27;35.07;100361.03;5075201;28;20047;-64
2023/03/13 02:37:13;;;;;;;6.35;3.65;;;;;;;12.26;35.23;100360.19;5074698;28;20048;-66
2023/03/13 02:39:46;;;;;;;6.07;3.75;;;;;;;12.27;35.30;100355.69;5074477;28;20490;-64
2023/03/13 02:42:18;;;;;;;6.53;3.78;;;;;;;12.26;35.10;100365.53;5074592;28;20055;-64
2023/03/13 02:44:47;;;;;;;6.50;3.72;;;;;;;12.25;35.37;100357.59;5074892;28;20409;-64
2023/03/13 02:47:19;;;;;;;5.93;3.45;;;;;;;12.26;35.24;100356.66;5074492;28;20047;-66
2023/03/13 02:49:47;;;;;;;5.35;3.35;;;;;;;12.25;35.22;100353.09;5074224;28;20102;-64
2023/03/13 02:52:22;;;;;;;5.85;3.47;;;;;;;12.26;35.30;100359.31;5074360;28;20072;-66
2023/03/13 02:54:53;;;;;;;6.57;3.47;;;;;;;12.24;35.31;100356.72;5074325;28;20049;-66
2023/03/13 02:57:24;;;;;;;5.75;3.40;;;;;;;12.25;35.21;100357.59;5074301;28;20048;-65
2023/03/13 02:59:55;;;;;;;5.47;3.47;;;;;;;12.25;35.47;100352.22;5074283;28;20064;-65
2023/03/13 03:02:24;;;;;;;5.95;3.40;;;;;;;12.25;35.12;100360.25;5074138;28;20339;-64
2023/03/13 03:04:52;;;;;;;5.55;3.40;;;;;;;12.25;35.20;100368.28;5074241;28;20474;-66
2023/03/13 03:07:20;;;;;;;7.60;3.70;;;;;;;12.24;35.24;100367.41;5073764;28;20044;-64
2023/03/13 03:09:48;;;;;;;5.13;2.92;;;;;;;12.24;35.29;100371.91;5074355;28;20076;-64
2023/03/13 03:12:17;;;;;;;5.45;3.22;;;;;;;12.24;35.14;100372.78;5074158;28;20094;-64
2023/03/13 03:14:46;;;;;;;6.15;3.63;;;;;;;12.23;35.59;100372.88;5074125;28;20124;-66
2023/03/13 03:17:14;;;;;;;6.80;3.55;;;;;;;12.23;35.30;100380.91;5073918;28;20737;-66
2023/03/13 03:19:42;;;;;;;5.43;3.20;;;;;;;12.22;35.50;100373.84;5073901;28;20071;-66
2023/03/13 03:22:10;;;;;;;6.95;3.55;;;;;;;12.21;35.31;100367.63;5074019;28;20094;-63
2023/03/13 03:24:39;;;;;;;5.13;3.15;;;;;;;12.21;35.53;100370.31;5073852;28;20124;-66
2023/03/13 03:27:07;;;;;;;6.28;3.58;;;;;;;12.19;35.53;100366.03;5073880;28;20052;-64
2023/03/13 03:29:36;;;;;;;5.45;3.38;;;;;;;12.24;35.42;100378.13;5074100;28;20127;-64
2023/03/13 03:32:06;;;;;;;5.72;3.30;;;;;;;12.20;35.29;100368.59;5074705;28;20045;-64
2023/03/13 03:34:34;;;;;;;6.90;3.10;;;;;;;12.15;35.54;100368.03;5081937;28;20068;-64
2023/03/13 03:37:02;;;;;;;6.40;3.58;;;;;;;12.21;35.50;100359.59;5073727;28;20497;-64
2023/03/13 03:39:30;;;;;;;4.70;2.92;;;;;;;12.20;35.62;100365.06;5077253;28;20063;-63
2023/03/13 03:41:59;;;;;;;5.35;3.30;;;;;;;12.24;35.47;100361.22;5079238;28;20056;-66
2023/03/13 03:44:27;;;;;;;5.28;3.15;;;;;;;12.23;35.54;100360.34;5081610;28;20051;-65
2023/03/13 03:46:55;;;;;;;5.05;3.15;;;;;;;12.16;35.52;100356.41;5077258;28;20044;-65
2023/03/13 03:49:24;;;;;;;5.97;3.13;;;;;;;12.22;35.54;100365.81;5073433;28;20044;-66
2023/03/13 03:51:53;;;;;;;5.78;3.10;;;;;;;12.19;35.57;100361.53;5073214;28;20123;-65
2023/03/13 03:54:21;;;;;;;7.10;3.40;;;;;;;12.18;35.63;100361.63;5073614;28;20110;-64
2023/03/13 03:56:49;;;;;;;5.80;3.33;;;;;;;12.18;35.67;100377.69;5073081;28;20131;-64
2023/03/13 03:59:17;;;;;;;5.82;3.17;;;;;;;12.17;35.59;100375.97;5073093;28;20040;-65
2023/03/13 04:01:45;;;;;;;5.20;3.13;;;;;;;12.19;35.58;100379.41;5073338;28;20482;-64
2023/03/13 04:04:14;;;;;;;5.70;3.25;;;;;;;12.18;35.49;100385.72;5072962;28;20056;-65
2023/03/13 04:06:43;;;;;;;5.75;3.45;;;;;;;12.17;35.74;100397.34;5105497;28;20416;-64
2023/03/13 04:09:11;;;;;;;5.05;3.22;;;;;;;12.18;35.52;100393.72;5072828;28;20512;-64
2023/03/13 04:11:39;;;;;;;5.55;3.17;;;;;;;12.15;35.67;100404.59;5072817;28;20055;-64
2023/03/13 04:14:08;;;;;;;4.80;2.90;;;;;;;12.14;35.65;100397.53;5072744;28;20072;-64
2023/03/13 04:16:36;;;;;;;5.75;3.30;;;;;;;12.13;35.58;100401.16;5072782;28;20056;-65
2023/03/13 04:19:04;;;;;;;4.70;2.92;;;;;;;12.12;35.75;100404.81;5072044;28;20486;-66
2023/03/13 04:21:33;;;;;;;5.13;3.20;;;;;;;12.12;35.70;100407.47;5072656;28;20045;-66
2023/03/13 04:24:03;;;;;;;5.75;2.95;;;;;;;12.11;35.78;100411.13;5072781;28;20048;-66
2023/03/13 04:26:31;;;;;;;5.97;3.40;;;;;;;12.11;35.77;100408.44;5073442;28;20048;-66
2023/03/13 04:28:59;;;;;;;5.93;3.30;;;;;;;12.10;35.80;100417.41;5073415;28;20454;-65
2023/03/13 04:31:28;;;;;;;5.60;3.00;;;;;;;12.14;35.58;100418.94;5072550;28;20440;-66
2023/03/13 04:33:56;;;;;;;6.03;3.15;;;;;;;12.11;35.95;100424.47;5072328;28;20090;-65
2023/03/13 04:36:24;;;;;;;5.40;3.22;;;;;;;12.07;35.82;100421.16;5072319;28;20113;-65
2023/03/13 04:38:52;;;;;;;5.78;3.40;;;;;;;12.07;35.90;100412.28;5072127;28;20048;-65
2023/03/13 04:41:22;;;;;;;4.68;3.00;;;;;;;12.07;35.92;100417.63;5072310;28;20462;-66
2023/03/13 04:43:50;;;;;;;5.53;3.33;;;;;;;12.05;36.18;100415.03;5072190;28;20048;-66
2023/03/13 04:46:18;;;;;;;5.75;3.45;;;;;;;12.07;35.85;100420.31;5072003;28;20052;-64
2023/03/13 04:48:46;;;;;;;5.35;2.88;;;;;;;12.07;36.10;100422.97;5072032;28;20048;-66
2023/03/13 04:51:14;;;;;;;5.03;3.10;;;;;;;12.04;36.19;100414.16;5071775;28;20123;-65
2023/03/13 04:53:43;;;;;;;4.97;3.10;;;;;;;12.04;35.97;100414.16;5072067;28;20136;-65
2023/03/13 04:56:13;;;;;;;6.88;3.20;;;;;;;12.02;36.00;100404.53;5072056;28;20059;-66
2023/03/13 04:58:43;;;;;;;5.75;3.25;;;;;;;12.03;35.89;100417.78;5072012;28;20048;-65
2023/03/13 05:01:13;;;;;;;4.65;2.90;;;;;;;12.03;36.05;100433.84;5072058;28;20052;-64
2023/03/13 05:03:42;;;;;;;5.78;3.33;;;;;;;12.04;36.18;100440.03;5072145;28;20136;-65
2023/03/13 05:06:10;;;;;;;5.53;3.15;;;;;;;12.03;35.96;100433.84;5072051;28;20101;-64
2023/03/13 05:08:38;;;;;;;5.57;3.33;;;;;;;12.02;36.04;100441.97;5071802;28;20098;-64
2023/03/13 05:11:07;;;;;;;5.03;3.15;;;;;;;12.00;36.17;100442.06;5071918;28;20064;-64
2023/03/13 05:13:35;;;;;;;5.25;3.05;;;;;;;12.01;36.23;100451.78;5071853;28;20053;-64
2023/03/13 05:16:05;;;;;;;4.82;2.83;;;;;;;12.02;36.06;100452.66;5071647;28;20402;-65
2023/03/13 05:18:34;;;;;;;5.63;3.15;;;;;;;12.01;36.29;100451.78;5071627;28;20549;-64
2023/03/13 05:21:03;;;;;;;5.97;3.33;;;;;;;12.01;36.16;100450.94;5071771;28;20040;-66
2023/03/13 05:23:31;;;;;;;5.53;3.22;;;;;;;11.98;36.14;100435.97;5071581;28;20048;-65
2023/03/13 05:25:59;;;;;;;6.15;3.63;;;;;;;12.01;36.32;100435.75;5071701;28;20040;-65
2023/03/13 05:28:28;;;;;;;5.40;3.33;;;;;;;11.95;36.29;100433.47;5071466;28;20044;-64
2023/03/13 05:30:56;;;;;;;5.90;3.42;;;;;;;11.99;36.40;100448.38;5071369;28;20049;-65
2023/03/13 05:33:25;;;;;;;6.78;3.22;;;;;;;12.01;36.32;100457.16;5071680;28;20048;-65
2023/03/13 05:35:53;;;;;;;6.68;3.45;;;;;;;11.99;36.23;100451.03;5071419;28;20045;-65
2023/03/13 05:38:22;;;;;;;5.93;3.20;;;;;;;11.99;36.43;100453.72;5071723;28;20048;-64
2023/03/13 05:40:50;;;;;;;5.80;3.35;;;;;;;11.99;36.20;100453.72;5071311;28;20056;-67
2023/03/13 05:43:18;;;;;;;5.47;3.50;;;;;;;11.98;36.29;100449.31;5071293;28;20045;-65
2023/03/13 05:45:46;;;;;;;6.10;3.42;;;;;;;11.98;36.35;100446.66;5071527;28;20504;-65
2023/03/13 05:48:14;;;;;;;5.30;3.33;;;;;;;11.94;36.41;100445.09;5071596;28;20076;-65
2023/03/13 05:50:44;;;;;;;5.40;3.42;;;;;;;11.95;36.51;100446.81;5072012;28;20060;-66
2023/03/13 05:53:12;;;;;;;5.82;3.08;;;;;;;11.97;36.41;100450.28;5071623;28;20105;-65
2023/03/13 05:55:40;;;;;;;5.30;3.20;;;;;;;11.98;36.39;100448.47;5071213;28;20048;-64
2023/03/13 05:58:08;;;;;;;5.70;3.47;;;;;;;11.97;36.59;100446.75;5071102;28;20055;-64
2023/03/13 06:00:38;;;;;;;5.13;3.20;;;;;;;11.95;36.52;100444.16;5071464;28;20052;-65
2023/03/13 06:03:06;;;;;;;5.20;3.03;;;;;;;11.96;36.55;100448.53;5071309;28;20052;-64
2023/03/13 06:05:34;;;;;;;5.80;3.40;;;;;;;11.95;36.51;100445.97;5071113;28;20504;-64
2023/03/13 06:08:04;;;;;;;5.53;3.25;;;;;;;11.94;36.49;100447.78;5071015;28;20102;-64
2023/03/13 06:10:33;;;;;;;4.38;3.03;;;;;;;11.95;36.64;100446.81;5071064;28;20118;-65
2023/03/13 06:13:01;;;;;;;5.72;3.28;;;;;;;11.95;36.76;100446.81;5071031;28;20049;-64
2023/03/13 06:15:51;;;;;;;6.20;3.40;;;;;;;11.97;36.56;100442.28;5071283;28;20052;-65
2023/03/13 06:18:20;;;;;;;5.63;3.45;;;;;;;11.94;36.48;100439.75;5070954;28;20053;-66
2023/03/13 06:20:49;;;;;;;5.00;2.92;;;;;;;11.97;36.65;100444.09;5071144;28;20051;-65
2023/03/13 06:23:18;;;;;;;7.15;3.85;;;;;;;11.96;36.64;100448.53;5071406;28;20455;-65
2023/03/13 06:25:47;;;;;;;5.95;3.47;;;;;;;11.96;36.73;100448.53;5071047;28;20048;-64
2023/03/13 06:28:15;;;;;;;5.75;3.42;;;;;;;11.97;36.64;100444.94;5070917;28;20048;-65
2023/03/13 06:30:44;;;;;;;5.07;3.20;;;;;;;11.95;36.67;100444.16;5071114;28;20044;-65
2023/03/13 06:33:12;;;;;;;5.18;3.50;;;;;;;11.96;36.77;100447.69;5070957;28;20044;-64
2023/03/13 06:35:41;;;;;;;5.00;3.25;;;;;;;11.94;36.74;100438.91;5070508;28;20106;-66
2023/03/13 06:38:25;;;;;;;5.18;3.40;;;;;;;11.95;36.75;100435.28;5070737;28;20048;-65
2023/03/13 06:40:53;;;;;;;5.65;3.50;;;;;;;11.98;36.53;100445.78;5070764;28;20061;-66
2023/03/13 06:43:22;;;;;;;6.43;3.50;;;;;;;11.97;36.74;100447.63;5073237;28;20071;-64
2023/03/13 06:45:51;;;;;;;4.85;3.00;;;;;;;11.96;36.82;100448.53;5074074;28;20041;-66
2023/03/13 06:48:21;;;;;;;4.82;3.00;;;;;;;11.97;36.67;100458.31;5074099;28;20098;-66
2023/03/13 06:50:50;;;;;;;6.05;3.45;;;;;;;11.98;36.79;100462.69;5074422;28;20036;-65
2023/03/13 06:53:20;;;;;;;5.15;3.30;;;;;;;11.97;36.71;100452.97;5074188;28;20109;-64
2023/03/13 06:55:49;;;;;;;5.82;3.50;;;;;;;11.99;36.90;100455.53;5074191;28;20098;-65
2023/03/13 06:58:18;;;;;;;6.00;3.30;;;;;;;11.98;36.49;100448.47;5074148;28;20064;-66
2023/03/13 07:00:59;;;;;;;5.85;3.33;;;;;;;12.00;36.74;100450.09;5074073;28;20109;-65
2023/03/13 07:03:28;;;;;;;5.95;3.33;;;;;;;11.98;36.82;100443.97;5074393;28;20041;-65
2023/03/13 07:05:57;;;;;;;6.90;3.60;;;;;;;11.98;36.71;100446.66;5074040;28;20435;-65
2023/03/13 07:08:25;;;;;;;5.78;3.58;;;;;;;11.98;36.78;100445.78;5074057;28;20048;-65
2023/03/13 07:10:59;;;;;;;6.88;3.50;;;;;;;11.99;36.89;100450.19;5074093;28;20554;-67
2023/03/13 07:13:28;;;;;;;7.68;3.58;;;;;;;12.00;36.82;100454.56;5073741;28;20052;-65
2023/03/13 07:16:00;;;;;;;5.82;3.30;;;;;;;11.95;36.71;100446.81;5073942;28;20528;-65
2023/03/13 07:18:28;;;;;;;5.50;3.25;;;;;;;12.01;36.97;100451.78;5073726;28;20045;-66
2023/03/13 07:20:58;;;;;;;5.85;2.97;;;;;;;12.00;36.96;100447.41;5073626;28;20052;-66
2023/03/13 07:23:29;;;;;;;7.65;3.70;;;;;;;11.95;36.81;100430.78;5073807;28;20067;-66
2023/03/13 07:26:01;;;;;;;6.22;3.33;;;;;;;11.97;36.83;100436.91;5073654;28;20421;-65
2023/03/13 07:28:30;;;;;;;5.70;3.20;;;;;;;11.98;36.74;100435.97;5073687;28;20052;-65
2023/03/13 07:31:06;;;;;;;4.70;3.10;;;;;;;11.99;36.86;100439.50;5073500;28;20060;-65
2023/03/13 07:33:35;;;;;;;5.80;3.22;;;;;;;11.99;36.97;100436.81;5073246;28;20094;-66
2023/03/13 07:36:03;;;;;;;6.35;3.30;;;;;;;12.00;36.98;100431.38;5073179;28;20048;-65
2023/03/13 07:38:33;;;;;;;4.75;2.92;;;;;;;12.00;36.90;100439.38;5073169;28;20049;-65
2023/03/13 07:41:03;;;;;;;5.50;3.50;;;;;;;12.01;36.97;100433.09;5073109;28;20455;-65
2023/03/13 07:43:32;;;;;;;5.82;3.55;;;;;;;12.00;36.84;100426.03;5073199;28;20080;-65
2023/03/13 07:46:01;;;;;;;5.90;3.28;;;;;;;12.01;37.04;100422.38;5073125;28;20051;-65
2023/03/13 07:48:32;;;;;;;6.13;3.47;;;;;;;12.01;37.02;100419.72;5073729;28;20070;-64
2023/03/13 07:51:00;;;;;;;5.93;3.20;;;;;;;12.01;36.91;100414.38;5073536;28;20449;-66
2023/03/13 07:53:29;;;;;;;5.40;3.25;;;;;;;12.01;37.12;100413.50;5072303;28;20040;-65
2023/03/13 07:56:00;;;;;;;5.78;3.25;;;;;;;12.02;36.97;100412.56;5072588;28;20174;-64
2023/03/13 07:58:31;;;;;;;4.85;3.10;;;;;;;12.00;37.21;100415.31;5072872;28;20068;-64
2023/03/13 08:00:59;;;;;;;6.63;3.33;;;;;;;12.03;36.92;100407.09;5073081;28;20078;-65
2023/03/13 08:03:28;;;;;;;5.82;3.28;;;;;;;12.01;36.92;100403.69;5072832;28;20049;-66
2023/03/13 08:05:58;;;;;;;5.28;3.22;;;;;;;12.01;37.05;100403.69;5072892;28;20041;-65
2023/03/13 08:08:28;;;;;;;5.13;3.20;;;;;;;12.02;37.21;100400.03;5072832;28;20082;-65
2023/03/13 08:11:00;;;;;;;5.10;3.10;;;;;;;12.02;36.95;100388.50;5072934;28;20140;-64
2023/03/13 08:13:30;;;;;;;5.22;3.22;;;;;;;12.02;37.24;100388.50;5072658;28;20072;-66
2023/03/13 08:16:04;;;;;;;5.30;3.13;;;;;;;12.01;36.99;100382.28;5072600;28;20044;-66
2023/03/13 08:18:33;;;;;;;5.13;3.08;;;;;;;12.01;37.03;100387.63;5072539;28;20147;-65
2023/03/13 08:21:07;;;;;;;5.50;3.10;;;;;;;12.02;36.99;100391.16;5072670;28;20486;-65
2023/03/13 08:23:35;;;;;;;5.05;3.13;;;;;;;12.01;36.92;100382.28;5072522;28;20048;-65
2023/03/13 08:26:06;;;;;;;6.10;3.30;;;;;;;12.03;37.01;100379.50;5072469;28;20485;-65
2023/03/13 08:28:36;;;;;;;4.93;3.03;;;;;;;12.03;37.18;100375.03;5072479;28;20489;-66
2023/03/13 08:31:09;;;;;;;6.00;3.00;;;;;;;12.02;36.97;100370.63;5072518;28;20044;-65
2023/03/13 08:33:38;;;;;;;5.75;3.15;;;;;;;12.00;37.16;100369.88;5072119;28;20071;-64
2023/03/13 08:36:11;;;;;;;5.00;3.00;;;;;;;12.03;37.07;100371.50;5072093;28;20060;-66
2023/03/13 08:38:41;;;;;;;5.15;3.08;;;;;;;12.03;37.29;100368.81;5072011;28;20056;-64
2023/03/13 08:41:10;;;;;;;5.47;3.28;;;;;;;12.03;37.04;100368.81;5072347;28;20086;-66
2023/03/13 08:43:40;;;;;;;6.63;3.70;;;;;;;12.02;37.11;100359.94;5072192;28;20071;-66
2023/03/13 08:46:08;;;;;;;5.65;3.33;;;;;;;12.06;37.10;100373.97;5072164;28;20063;-66
2023/03/13 08:48:36;;;;;;;5.55;3.17;;;;;;;12.07;37.10;100361.47;5072261;28;20128;-66
2023/03/13 08:51:06;;;;;;;6.53;3.28;;;;;;;12.06;37.35;100362.41;5072029;28;20439;-65
2023/03/13 08:53:36;;;;;;;6.80;3.28;;;;;;;12.08;37.12;100352.50;5071628;28;20056;-65
2023/03/13 08:56:06;;;;;;;5.38;3.33;;;;;;;12.08;36.98;100349.81;5071982;28;20150;-65
2023/03/13 08:58:34;;;;;;;7.97;3.53;;;;;;;12.09;37.19;100352.41;5071906;28;20059;-66
2023/03/13 09:01:05;;;;;;;5.18;3.17;;;;;;;12.09;37.20;100344.38;5072066;28;20044;-66
2023/03/13 09:03:33;;;;;;;6.95;4.00;;;;;;;12.10;37.20;100350.56;5071963;28;20068;-64
2023/03/13 09:06:02;;;;;;;6.43;3.45;;;;;;;12.08;37.20;100347.16;5071424;28;20048;-65
2023/03/13 09:08:32;;;;;;;5.63;3.33;;;;;;;12.09;36.96;100338.16;5071801;28;20477;-66
2023/03/13 09:11:02;;;;;;;5.22;3.28;;;;;;;12.12;37.30;100352.19;5071866;28;20049;-64
2023/03/13 09:13:32;;;;;;;6.10;3.15;;;;;;;12.10;37.21;100332.72;5071617;28;20409;-65
2023/03/13 09:16:01;;;;;;;5.45;3.42;;;;;;;12.10;37.28;100339.88;5071672;28;20119;-65
2023/03/13 09:18:31;;;;;;;5.40;3.50;;;;;;;12.14;37.40;100344.06;5071844;28;20508;-66
2023/03/13 09:21:00;;;;;;;5.25;3.42;;;;;;;12.15;37.21;100335.06;5071795;28;20048;-65
2023/03/13 09:23:28;;;;;;;5.63;3.42;;;;;;;12.16;37.18;100334.13;5072014;28;20052;-67
2023/03/13 09:25:57;;;;;;;5.90;3.60;;;;;;;12.16;37.24;100331.44;5072268;28;20071;-64
2023/03/13 09:28:26;;;;;;;4.88;3.10;;;;;;;12.17;37.20;100328.69;5071733;28;20045;-65
2023/03/13 09:30:55;;;;;;;6.30;3.60;;;;;;;12.16;37.37;100326.09;5071760;28;20052;-65
2023/03/13 09:33:24;;;;;;;5.70;3.47;;;;;;;12.18;37.10;100313.50;5071232;28;20060;-65
2023/03/13 09:35:53;;;;;;;5.85;3.33;;;;;;;12.16;37.32;100318.97;5071332;28;20070;-66
2023/03/13 09:38:22;;;;;;;5.68;3.20;;;;;;;12.14;37.18;100311.97;5071486;28;20042;-65
2023/03/13 09:40:53;;;;;;;5.68;3.35;;;;;;;12.21;37.31;100318.63;5071387;28;20087;-64
2023/03/13 09:43:43;;;;;;;6.37;3.30;;;;;;;12.22;37.35;100320.34;5071879;28;20047;-65
2023/03/13 09:46:16;;;;;;;5.45;3.30;;;;;;;12.21;37.09;100307.94;5071266;28;20049;-66
2023/03/13 09:48:48;;;;;;;5.93;3.60;;;;;;;12.24;37.39;100302.38;5071569;28;20044;-66
2023/03/13 09:51:23;;;;;;;6.53;3.43;;;;;;;12.27;37.49;100307.56;5071318;28;20076;-66
2023/03/13 09:53:56;;;;;;;5.32;3.00;;;;;;;12.27;37.45;100310.22;5071200;28;20325;-64
2023/03/13 09:56:28;;;;;;;5.30;3.00;;;;;;;12.23;37.45;100312.22;5071253;28;20493;-66
2023/03/13 09:59:01;;;;;;;5.47;3.47;;;;;;;12.22;37.79;100298.97;5071107;28;20124;-67
2023/03/13 10:01:31;;;;;;;5.95;3.45;;;;;;;12.26;37.68;100300.50;5071266;28;20041;-65
2023/03/13 10:04:07;;;;;;;6.65;3.97;;;;;;;12.28;37.71;100301.25;5071324;28;20102;-66
2023/03/13 10:06:41;;;;;;;6.47;3.33;;;;;;;12.30;37.96;100283.25;5071178;28;20044;-64
2023/03/13 10:09:20;;;;;;;7.10;3.58;;;;;;;12.31;37.96;100276.94;5071251;28;20062;-64
2023/03/13 10:11:55;;;;;;;6.10;3.42;;;;;;;12.37;38.03;100287.25;5071518;28;20131;-64
2023/03/13 10:14:30;;;;;;;5.88;3.55;;;;;;;12.38;38.00;100272.91;5071079;28;20401;-66
2023/03/13 10:17:07;;;;;;;6.47;3.45;;;;;;;12.43;38.05;100278.78;5071434;28;20040;-66
2023/03/13 10:19:38;;;;;;;6.03;3.30;;;;;;;12.45;38.07;100274.22;5074819;28;20047;-64
2023/03/13 10:22:14;;;;;;;5.13;3.20;;;;;;;12.53;38.21;100271.84;5074823;28;20048;-66
2023/03/13 10:24:50;;;;;;;5.60;3.45;;;;;;;12.55;38.21;100278.00;5074831;28;20048;-64
2023/03/13 10:27:18;;;;;;;6.05;3.20;;;;;;;12.59;38.32;100260.75;5074765;28;20052;-65
2023/03/13 10:29:49;;;;;;;5.43;3.47;;;;;;;12.65;38.11;100272.88;5074716;28;20067;-66
2023/03/13 10:32:19;;;;;;;6.32;3.20;;;;;;;12.70;38.23;100265.38;5074585;28;20052;-65
2023/03/13 10:34:53;;;;;;;6.47;3.22;;;;;;;12.76;38.23;100258.75;5074503;28;20115;-66
2023/03/13 10:37:25;;;;;;;5.25;3.10;;;;;;;12.80;38.22;100266.44;5074526;28;20064;-65
2023/03/13 10:39:54;;;;;;;5.63;3.65;;;;;;;12.86;38.35;100267.84;5074330;28;20064;-64
2023/03/13 10:42:28;;;;;;;5.75;3.20;;;;;;;12.89;38.30;100256.91;5074298;28;20531;-65
2023/03/13 10:44:59;;;;;;;5.93;3.30;;;;;;;12.90;38.33;100243.44;5074544;28;20052;-65
2023/03/13 10:47:32;;;;;;;7.70;3.60;;;;;;;12.98;38.20;100252.75;5074295;28;20040;-64
2023/03/13 10:50:04;;;;;;;5.25;3.20;;;;;;;13.03;38.29;100240.75;5074398;28;20102;-65
2023/03/13 10:52:41;;;;;;;5.32;3.03;;;;;;;13.06;38.41;100235.19;5074251;28;20048;-65
2023/03/13 10:55:13;;;;;;;5.38;3.15;;;;;;;13.12;38.28;100239.22;5074145;28;20075;-65
2023/03/13 10:57:43;;;;;;;5.30;3.22;;;;;;;13.16;38.42;100227.34;5074441;28;20052;-64
2023/03/13 11:00:30;;;;;;;5.50;2.92;;;;;;;13.22;38.44;100234.09;5074341;28;20509;-65
2023/03/13 11:02:59;;;;;;;5.13;2.95;;;;;;;13.28;38.28;100228.31;5074450;28;20125;-67
2023/03/13 11:05:41;;;;;;;5.68;3.30;;;;;;;13.31;38.34;100218.22;5074328;28;20052;-64
2023/03/13 11:08:21;;;;;;;5.97;3.40;;;;;;;13.35;38.50;100216.22;5074542;28;20127;-65
2023/03/13 11:10:56;;;;;;;6.32;3.10;;;;;;;13.41;38.42;100213.06;5078443;28;20048;-66
2023/03/13 11:13:34;;;;;;;5.65;2.97;;;;;;;13.47;38.32;100201.91;5081319;28;20044;-64
2023/03/13 11:16:21;;;;;;;5.32;3.00;;;;;;;13.49;38.33;100197.28;5077030;28;20063;-66
2023/03/13 11:19:08;;;;;;;4.80;3.22;;;;;;;13.56;38.45;100195.88;5073048;28;20096;-66
2023/03/13 11:21:44;;;;;;;7.10;3.42;;;;;;;13.66;38.25;100204.97;5073882;28;20047;-65
2023/03/13 11:24:22;;;;;;;5.00;3.28;;;;;;;13.69;38.29;100199.34;5073715;28;20068;-65
2023/03/13 11:26:58;;;;;;;5.20;3.28;;;;;;;13.78;38.40;100200.50;5073723;28;20519;-64
2023/03/13 11:29:43;;;;;;;6.27;3.10;;;;;;;13.84;38.39;100193.84;5073585;28;20045;-66
2023/03/13 11:32:22;;;;;;;6.30;3.10;;;;;;;13.88;38.21;100173.88;5073754;28;20294;-64
2023/03/13 11:34:54;;;;;;;5.20;3.25;;;;;;;13.98;38.25;100188.28;5073468;28;20111;-64
2023/03/13 11:37:27;;;;;;;5.18;3.15;;;;;;;14.05;38.16;100160.03;5073525;28;20047;-65
2023/03/13 11:40:07;;;;;;;5.47;3.40;;;;;;;14.13;38.29;100159.47;5073521;28;20056;-64